Nord Taipei — 3EYN2 — position and weather

sailwx.info

Track history (hours):
 
Tides and Currents Weather Stations Pressure Air Temp Water Temp Dewpoint Dewpoint Depression Visibility Wind Speed Wind Dir Waves Ship Positions

Nord Taipei

Last reported at 2018-Jan-10 08:08 UTC. Time now 2018-Feb-19 18:05 UTC.
Position N 27°38' W 015°13'.
Warning: this ship's position is 40 days out of date.

Length 177 m; draft 9.6 m.

Type: Cargo ship. MMSI: 352031000.

Date/timePositionNaut miles runAvg speedWind from/ knotsBaromVisibWave heightAir tempDewpointWater temp
2018-Jan-10 08:08N 27°38' W 015°13'212.8
2018-Jan-10 08:01N 27°40' W 015°12'612.7
2018-Jan-10 07:30N 27°46' W 015°10'612.8
2018-Jan-10 07:00N 27°52' W 015°07'713.1
2018-Jan-10 06:30N 27°58' W 015°04'613.1
2018-Jan-10 06:01N 28°04' W 015°02'612.7
2018-Jan-10 05:30N 28°10' W 014°59'612.6
2018-Jan-10 05:00N 28°16' W 014°56'612.6
2018-Jan-10 04:30N 28°22' W 014°54'612.9
2018-Jan-10 04:00N 28°28' W 014°52'712.9
2018-Jan-10 03:29N 28°34' W 014°50'612.9
2018-Jan-10 03:00N 28°40' W 014°49'  
2018-Jan-04 10:42N 49°42' W 003°50'1 3.7
2018-Jan-04 10:30N 49°43' W 003°49'12 1.9
2018-Jan-04 04:05N 49°48' W 003°31'2 7.1
2018-Jan-04 03:45N 49°49' W 003°28'2 8.5
2018-Jan-04 03:30N 49°50' W 003°25'510.1
2018-Jan-04 02:59N 49°52' W 003°18'711.9
2018-Jan-04 02:23N 49°56' W 003°08'512.9
2018-Jan-04 02:00N 49°58' W 003°01'713.5
2018-Jan-04 01:30N 49°60' W 002°51'713.1
2018-Jan-04 01:00N 50°02' W 002°41'1011.8
2018-Jan-04 00:09N 50°05' W 002°26'84 3.5
2018-Jan-02 23:59N 50°27' W 000°19'3 6.9
2018-Jan-02 23:30N 50°28' W 000°14'4 7.1
2018-Jan-02 23:01N 50°29' W 000°09'3 6.7
2018-Jan-02 22:31N 50°30' W 000°04'3 6.7
2018-Jan-02 22:00N 50°31' E 000°02'3 6.3
2018-Jan-02 21:31N 50°32' E 000°06'3 6.3
2018-Jan-02 21:00N 50°32' E 000°11'3 5.8
2018-Jan-02 20:30N 50°33' E 000°16'1 2.1
2018-Jan-02 20:01N 50°33' E 000°17'1 2.5
2018-Jan-02 19:30N 50°34' E 000°19'2 3.6
2018-Jan-02 19:00N 50°34' E 000°22'2 4.3
2018-Jan-02 18:30N 50°35' E 000°25'3 5.2
2018-Jan-02 17:59N 50°36' E 000°29'3 6.0
2018-Jan-02 17:30N 50°37' E 000°34'3 6.1
2018-Jan-02 17:00N 50°38' E 000°38'4 7.2
2018-Jan-02 16:30N 50°40' E 000°43'510.7
2018-Jan-02 16:00N 50°42' E 000°50'510.2
2018-Jan-02 15:30N 50°45' E 000°57'5 9.9
2018-Jan-02 15:00N 50°48' E 001°04'6 9.7
2018-Jan-02 14:21N 50°51' E 001°12'9 8.4
2018-Jan-02 13:19N 50°57' E 001°22'2 7.5
2018-Jan-02 13:00N 50°59' E 001°23'2 4.8
2018-Jan-02 12:30N 51°01' E 001°26'2 4.4
2018-Jan-02 12:01N 51°03' E 001°28'4 7.7
2018-Jan-02 11:30N 51°05' E 001°33'5 9.0
2018-Jan-02 11:01N 51°08' E 001°38'510.0
2018-Jan-02 10:31N 51°12' E 001°44'611.3
2018-Jan-02 10:00N 51°17' E 001°49'612.4
2018-Jan-02 09:31N 51°22' E 001°54'1413.6
2018-Jan-02 08:30N 51°32' E 002°08'713.7
2018-Jan-02 07:59N 51°38' E 002°15'9111.1
2018-Jan-01 23:46N 52°50' E 003°46'312.1
2018-Jan-01 23:30N 52°52' E 003°50'712.3
2018-Jan-01 22:57N 52°57' E 003°58'367 9.7
2017-Dec-31 09:04N 57°48' E 010°31'111.7
2017-Dec-31 09:00N 57°48' E 010°33'510.5
2017-Dec-31 08:30N 57°48' E 010°43'  
Track history (hours):
 
Tides and Currents Weather Stations Pressure Air Temp Water Temp Dewpoint Dewpoint Depression Visibility Wind Speed Wind Dir Waves Ship Positions

Nord Taipei

Last reported at 2018-Jan-10 08:08 UTC. Time now 2018-Feb-19 18:05 UTC.
Position N 27°38' W 015°13'.
Warning: this ship's position is 40 days out of date.

Length 177 m; draft 9.6 m.

Type: Cargo ship. MMSI: 352031000.

Date/timePositionNaut miles runAvg speedWind from/ knotsBaromVisibWave heightAir tempDewpointWater temp
2018-Jan-10 08:08N 27°38' W 015°13'212.8
2018-Jan-10 08:01N 27°40' W 015°12'612.7
2018-Jan-10 07:30N 27°46' W 015°10'612.8
2018-Jan-10 07:00N 27°52' W 015°07'713.1
2018-Jan-10 06:30N 27°58' W 015°04'613.1
2018-Jan-10 06:01N 28°04' W 015°02'612.7
2018-Jan-10 05:30N 28°10' W 014°59'612.6
2018-Jan-10 05:00N 28°16' W 014°56'612.6
2018-Jan-10 04:30N 28°22' W 014°54'612.9
2018-Jan-10 04:00N 28°28' W 014°52'712.9
2018-Jan-10 03:29N 28°34' W 014°50'612.9
2018-Jan-10 03:00N 28°40' W 014°49'  
2018-Jan-04 10:42N 49°42' W 003°50'1 3.7
2018-Jan-04 10:30N 49°43' W 003°49'12 1.9
2018-Jan-04 04:05N 49°48' W 003°31'2 7.1
2018-Jan-04 03:45N 49°49' W 003°28'2 8.5
2018-Jan-04 03:30N 49°50' W 003°25'510.1
2018-Jan-04 02:59N 49°52' W 003°18'711.9
2018-Jan-04 02:23N 49°56' W 003°08'512.9
2018-Jan-04 02:00N 49°58' W 003°01'713.5
2018-Jan-04 01:30N 49°60' W 002°51'713.1
2018-Jan-04 01:00N 50°02' W 002°41'1011.8
2018-Jan-04 00:09N 50°05' W 002°26'84 3.5
2018-Jan-02 23:59N 50°27' W 000°19'3 6.9
2018-Jan-02 23:30N 50°28' W 000°14'4 7.1
2018-Jan-02 23:01N 50°29' W 000°09'3 6.7
2018-Jan-02 22:31N 50°30' W 000°04'3 6.7
2018-Jan-02 22:00N 50°31' E 000°02'3 6.3
2018-Jan-02 21:31N 50°32' E 000°06'3 6.3
2018-Jan-02 21:00N 50°32' E 000°11'3 5.8
2018-Jan-02 20:30N 50°33' E 000°16'1 2.1
2018-Jan-02 20:01N 50°33' E 000°17'1 2.5
2018-Jan-02 19:30N 50°34' E 000°19'2 3.6
2018-Jan-02 19:00N 50°34' E 000°22'2 4.3
2018-Jan-02 18:30N 50°35' E 000°25'3 5.2
2018-Jan-02 17:59N 50°36' E 000°29'3 6.0
2018-Jan-02 17:30N 50°37' E 000°34'3 6.1
2018-Jan-02 17:00N 50°38' E 000°38'4 7.2
2018-Jan-02 16:30N 50°40' E 000°43'510.7
2018-Jan-02 16:00N 50°42' E 000°50'510.2
2018-Jan-02 15:30N 50°45' E 000°57'5 9.9
2018-Jan-02 15:00N 50°48' E 001°04'6 9.7
2018-Jan-02 14:21N 50°51' E 001°12'9 8.4
2018-Jan-02 13:19N 50°57' E 001°22'2 7.5
2018-Jan-02 13:00N 50°59' E 001°23'2 4.8
2018-Jan-02 12:30N 51°01' E 001°26'2 4.4
2018-Jan-02 12:01N 51°03' E 001°28'4 7.7
2018-Jan-02 11:30N 51°05' E 001°33'5 9.0
2018-Jan-02 11:01N 51°08' E 001°38'510.0
2018-Jan-02 10:31N 51°12' E 001°44'611.3
2018-Jan-02 10:00N 51°17' E 001°49'612.4
2018-Jan-02 09:31N 51°22' E 001°54'1413.6
2018-Jan-02 08:30N 51°32' E 002°08'713.7
2018-Jan-02 07:59N 51°38' E 002°15'9111.1
2018-Jan-01 23:46N 52°50' E 003°46'312.1
2018-Jan-01 23:30N 52°52' E 003°50'712.3
2018-Jan-01 22:57N 52°57' E 003°58'367 9.7
2017-Dec-31 09:04N 57°48' E 010°31'111.7
2017-Dec-31 09:00N 57°48' E 010°33'510.5
2017-Dec-31 08:30N 57°48' E 010°43'  

Dump ship's entire track history